createdAt,value
2019-02-19T00:15:40.773Z,4.0
2019-02-19T00:32:28.744Z,4.0
2019-02-19T00:49:16.723Z,4.0
2019-02-19T01:06:04.600Z,4.0
2019-02-19T01:22:52.323Z,4.0
2019-02-19T01:39:40.120Z,4.0
2019-02-19T01:56:27.535Z,4.0
2019-02-19T02:13:15.058Z,3.9
2019-02-19T02:30:02.615Z,3.9
2019-02-19T02:46:49.855Z,3.9
2019-02-19T03:03:37.123Z,3.9
2019-02-19T03:20:24.384Z,3.9
2019-02-19T03:37:11.626Z,3.9
2019-02-19T03:53:58.785Z,3.9
2019-02-19T04:10:45.870Z,3.9
2019-02-19T04:27:32.821Z,3.9
2019-02-19T04:44:19.903Z,3.8
2019-02-19T05:01:06.818Z,3.8
2019-02-19T05:17:53.872Z,3.8
2019-02-19T05:34:40.968Z,3.8
2019-02-19T05:51:28.101Z,3.8
2019-02-19T06:08:15.327Z,3.8
2019-02-19T06:25:02.786Z,3.8
2019-02-19T06:41:49.764Z,3.8
2019-02-19T06:58:36.981Z,3.8
2019-02-19T07:15:24.073Z,3.8
2019-02-19T07:32:11.280Z,3.8
2019-02-19T07:48:58.509Z,3.8
2019-02-19T08:05:45.682Z,3.8
2019-02-19T08:22:32.986Z,3.8
2019-02-19T08:39:20.182Z,3.8
2019-02-19T08:56:07.576Z,3.9
2019-02-19T09:12:54.931Z,4.0
2019-02-19T09:29:42.333Z,4.2
2019-02-19T09:46:30.163Z,4.3
2019-02-19T10:03:18.215Z,4.4
2019-02-19T10:20:06.339Z,4.5
2019-02-19T10:36:54.345Z,4.5
2019-02-19T10:53:42.533Z,4.5
2019-02-19T11:10:30.667Z,4.5
2019-02-19T11:27:19.015Z,4.5
2019-02-19T11:44:07.333Z,4.6
2019-02-19T12:00:55.889Z,4.5
2019-02-19T12:17:44.224Z,4.5
2019-02-19T12:34:32.685Z,4.5
2019-02-19T12:51:26.449Z,4.5
2019-02-19T13:08:09.549Z,4.5
2019-02-19T13:24:57.970Z,4.5
2019-02-19T13:41:46.247Z,4.5
2019-02-19T13:58:34.661Z,4.5
2019-02-19T14:15:22.960Z,4.5
2019-02-19T14:32:11.349Z,4.5
2019-02-19T14:48:59.779Z,4.4
2019-02-19T15:05:48.218Z,4.4
2019-02-19T15:22:36.800Z,4.4
2019-02-19T15:39:25.311Z,4.4
2019-02-19T15:56:17.584Z,4.4
2019-02-19T16:13:02.253Z,4.3
2019-02-19T16:29:50.900Z,4.3
2019-02-19T16:46:40.783Z,4.3
2019-02-19T17:03:28.126Z,4.3
2019-02-19T17:20:28.212Z,4.3
2019-02-19T17:37:04.373Z,4.2
2019-02-19T17:53:52.284Z,4.2
2019-02-19T18:10:39.890Z,4.2
2019-02-19T18:27:27.643Z,4.2
2019-02-19T18:44:15.560Z,4.2
2019-02-19T19:01:03.206Z,4.2
2019-02-19T19:17:51.055Z,4.2
2019-02-19T19:34:38.611Z,4.2
2019-02-19T19:51:26.340Z,4.2
2019-02-19T20:08:14.081Z,4.1
2019-02-19T20:25:01.930Z,4.1
2019-02-19T20:41:49.620Z,4.1
2019-02-19T20:58:37.360Z,4.1
2019-02-19T21:15:25.096Z,4.1
2019-02-19T21:32:12.891Z,4.1
2019-02-19T21:49:00.860Z,4.1
2019-02-19T22:05:48.880Z,4.1
2019-02-19T22:22:36.538Z,4.1
2019-02-19T22:39:24.455Z,4.0
2019-02-19T22:56:12.375Z,4.0
2019-02-19T23:13:00.137Z,4.0
2019-02-19T23:29:47.915Z,4.0
2019-02-19T23:46:35.627Z,4.0
